Time;durP1;ratioP1;P1;durP2;ratioP2;P2;SDS_P1;SDS_P2;PMS_P1;PMS_P2;Temp;Humidity;BMP_temperature;BMP_pressure;BME280_temperature;BME280_humidity;BME280_pressure;Samples;Min_cycle;Max_cycle;Signal;HPM_P1;HPM_P2
2022/07/24 00:02:43;;;;;;;7.80;6.25;;;18.70;96.30;;;;;;20974694;28;20032;-59
2022/07/24 00:12:45;;;;;;;6.50;5.55;;;18.70;95.80;;;;;;20972194;28;20394;-55
2022/07/24 00:22:48;;;;;;;6.93;6.22;;;18.60;95.50;;;;;;20971450;28;20045;-56
2022/07/24 00:32:50;;;;;;;6.65;5.30;;;18.60;95.50;;;;;;20954096;28;20485;-57
2022/07/24 00:42:53;;;;;;;5.22;4.60;;;18.60;95.20;;;;;;20969640;28;20029;-56
2022/07/24 00:52:56;;;;;;;6.13;4.95;;;18.70;94.50;;;;;;20969081;28;20063;-57
2022/07/24 01:02:59;;;;;;;6.97;4.93;;;18.70;94.10;;;;;;20965905;28;20544;-57
2022/07/24 01:13:01;;;;;;;6.07;4.80;;;18.60;94.20;;;;;;20967485;28;20106;-57
2022/07/24 01:23:04;;;;;;;5.75;5.00;;;18.40;94.40;;;;;;20966948;28;20501;-57
2022/07/24 01:33:07;;;;;;;5.63;4.75;;;18.30;95.00;;;;;;20966895;28;20389;-57
2022/07/24 01:43:09;;;;;;;6.03;4.75;;;18.40;94.70;;;;;;20966306;28;20032;-57
2022/07/24 01:53:11;;;;;;;5.13;4.25;;;18.50;94.60;;;;;;20965908;28;20032;-57
2022/07/24 02:03:14;;;;;;;7.95;4.38;;;18.70;94.40;;;;;;20965582;28;20437;-57
2022/07/24 02:13:16;;;;;;;4.90;4.40;;;18.90;94.10;;;;;;20965021;28;20501;-57
2022/07/24 02:23:20;;;;;;;5.88;3.92;;;19.30;93.20;;;;;;20964172;28;20170;-56
2022/07/24 02:33:22;;;;;;;4.65;4.18;;;19.20;93.20;;;;;;20964333;28;20496;-60
2022/07/24 02:43:25;;;;;;;4.32;3.92;;;18.80;93.40;;;;;;20977374;28;20504;-59
2022/07/24 02:53:27;;;;;;;4.53;3.95;;;18.70;93.60;;;;;;20978684;28;20449;-55
2022/07/24 03:03:30;;;;;;;4.72;3.85;;;18.60;93.80;;;;;;20977829;28;20067;-59
2022/07/24 03:13:32;;;;;;;5.80;5.00;;;18.60;93.70;;;;;;20976964;28;20512;-56
2022/07/24 03:23:35;;;;;;;6.47;4.45;;;18.40;94.40;;;;;;20976321;28;20117;-56
2022/07/24 03:33:37;;;;;;;5.30;4.40;;;18.30;94.60;;;;;;20975423;28;20040;-57
2022/07/24 03:43:39;;;;;;;6.25;4.28;;;18.20;94.50;;;;;;20974697;28;20116;-56
2022/07/24 03:53:42;;;;;;;7.25;5.07;;;18.20;94.80;;;;;;20974782;28;20052;-56
2022/07/24 04:03:44;;;;;;;4.63;4.22;;;18.40;94.60;;;;;;20973070;28;20106;-57
2022/07/24 04:13:46;;;;;;;8.95;4.18;;;18.60;94.20;;;;;;20972294;28;20129;-59
2022/07/24 04:23:49;;;;;;;4.55;4.00;;;18.50;94.50;;;;;;20971532;28;20098;-56
2022/07/24 04:33:51;;;;;;;4.00;3.40;;;18.40;94.50;;;;;;20970755;28;20036;-56
2022/07/24 04:43:54;;;;;;;4.65;3.33;;;18.50;93.80;;;;;;20970251;28;20081;-56
2022/07/24 04:53:56;;;;;;;3.50;2.80;;;18.70;93.40;;;;;;20969157;28;20405;-57
2022/07/24 05:03:59;;;;;;;3.47;2.80;;;18.90;93.10;;;;;;21039194;28;20043;-57
2022/07/24 05:14:01;;;;;;;3.63;2.70;;;19.10;93.00;;;;;;21051338;28;20381;-57
2022/07/24 05:24:04;;;;;;;3.80;2.90;;;19.30;92.20;;;;;;21050965;28;20112;-57
2022/07/24 05:34:07;;;;;;;3.13;2.85;;;20.00;91.50;;;;;;21050670;28;20081;-59
2022/07/24 05:44:09;;;;;;;4.50;3.20;;;20.30;91.10;;;;;;21066692;28;20526;-57
2022/07/24 05:54:11;;;;;;;3.28;2.92;;;20.50;90.70;;;;;;21049513;28;20493;-57
2022/07/24 06:04:14;;;;;;;5.22;3.13;;;21.00;90.50;;;;;;20963437;28;20086;-57
2022/07/24 06:14:16;;;;;;;5.38;3.40;;;21.20;90.10;;;;;;20974044;28;20041;-57
2022/07/24 06:24:19;;;;;;;3.75;3.15;;;21.60;89.00;;;;;;20980709;28;20044;-58
2022/07/24 06:34:23;;;;;;;3.15;2.70;;;24.30;82.10;;;;;;20979531;28;20074;-58
2022/07/24 06:44:26;;;;;;;3.33;3.03;;;25.00;79.00;;;;;;20978981;28;20101;-58
2022/07/24 06:54:28;;;;;;;4.60;3.58;;;26.30;75.90;;;;;;20978455;28;20044;-58
2022/07/24 07:04:30;;;;;;;5.03;4.15;;;28.10;73.90;;;;;;21059293;28;20101;-60
2022/07/24 07:14:33;;;;;;;4.95;4.45;;;29.70;71.40;;;;;;21059779;28;20401;-59
2022/07/24 07:24:37;;;;;;;5.13;4.63;;;31.10;68.70;;;;;;21075917;28;20546;-59
2022/07/24 07:34:39;;;;;;;6.65;6.00;;;31.50;66.30;;;;;;21058857;28;20032;-58
2022/07/24 07:44:42;;;;;;;6.63;6.03;;;31.80;65.00;;;;;;21074609;28;20081;-59
2022/07/24 07:54:45;;;;;;;6.85;6.03;;;31.40;66.50;;;;;;21054524;28;20058;-60
2022/07/24 08:04:47;;;;;;;6.57;5.97;;;31.60;67.30;;;;;;20972486;28;20086;-59
2022/07/24 08:14:49;;;;;;;7.10;5.80;;;31.80;67.00;;;;;;20971462;28;20057;-59
2022/07/24 08:24:52;;;;;;;10.40;7.20;;;32.10;65.00;;;;;;20971177;28;20041;-59
2022/07/24 08:34:55;;;;;;;8.18;7.18;;;32.00;65.00;;;;;;20968858;28;20045;-59
2022/07/24 08:44:59;;;;;;;8.07;7.38;;;31.90;65.40;;;;;;20969695;28;20086;-59
2022/07/24 08:55:02;;;;;;;8.50;7.70;;;32.00;65.30;;;;;;20970607;28;20422;-59
2022/07/24 09:05:05;;;;;;;13.00;8.98;;;32.10;64.60;;;;;;20918378;28;20107;-71
2022/07/24 09:15:11;;;;;;;16.73;8.25;;;32.20;63.90;;;;;;20960325;28;20070;-68
2022/07/24 09:25:18;;;;;;;9.63;8.30;;;31.50;66.80;;;;;;20962028;28;20264;-69
2022/07/24 09:35:30;;;;;;;8.38;7.47;;;31.50;67.20;;;;;;19974059;28;10000540;-66
2022/07/24 09:45:55;;;;;;;9.90;8.18;;;31.90;67.60;;;;;;20796678;28;20095;-62
2022/07/24 09:55:58;;;;;;;10.10;7.50;;;31.40;67.00;;;;;;20794421;28;20030;-60
2022/07/24 10:06:04;;;;;;;10.05;8.25;;;31.70;67.30;;;;;;20817214;28;20072;-61
2022/07/24 10:16:13;;;;;;;8.57;7.70;;;31.70;67.40;;;;;;20850912;28;20091;-60
2022/07/24 10:26:43;;;;;;;11.48;8.50;;;31.90;66.80;;;;;;20796082;28;20356;-61
2022/07/24 10:37:01;;;;;;;9.13;7.05;;;31.90;65.80;;;;;;20808830;28;20045;-61
2022/07/24 10:47:12;;;;;;;8.15;7.35;;;31.50;68.60;;;;;;20811438;28;20119;-62
2022/07/24 10:57:14;;;;;;;8.60;7.80;;;32.30;67.10;;;;;;20827682;28;20090;-62
2022/07/24 11:07:16;;;;;;;9.90;7.22;;;32.80;66.10;;;;;;20802350;28;20056;-62
2022/07/24 11:17:39;;;;;;;12.15;8.82;;;33.50;66.00;;;;;;20809486;28;20099;-63
2022/07/24 11:28:08;;;;;;;9.27;8.38;;;33.70;63.80;;;;;;20793187;28;20037;-64
2022/07/24 11:38:11;;;;;;;8.93;7.88;;;33.40;64.10;;;;;;20808640;28;20029;-63
2022/07/24 11:48:20;;;;;;;11.52;8.15;;;32.60;67.20;;;;;;20808318;28;20037;-63
2022/07/24 11:58:23;;;;;;;10.88;8.40;;;33.60;64.70;;;;;;20808054;28;20119;-64
2022/07/24 12:08:28;;;;;;;10.70;8.98;;;34.50;64.20;;;;;;20807381;28;20042;-64
2022/07/24 12:18:30;;;;;;;10.77;8.47;;;35.20;60.70;;;;;;20844942;28;20052;-65
2022/07/24 12:28:33;;;;;;;9.63;8.40;;;34.80;61.20;;;;;;20887158;28;20065;-64
2022/07/24 12:38:42;;;;;;;9.45;8.45;;;34.10;62.50;;;;;;20858342;28;20036;-64
2022/07/24 12:48:57;;;;;;;9.82;8.15;;;33.30;63.90;;;;;;20884225;28;20045;-64
2022/07/24 12:59:01;;;;;;;7.95;7.25;;;34.00;63.00;;;;;;20847369;28;20033;-64
2022/07/24 13:09:05;;;;;;;8.70;7.97;;;33.80;62.70;;;;;;20793113;28;20441;-64
2022/07/24 13:19:09;;;;;;;8.98;8.10;;;33.50;62.70;;;;;;20809484;28;20046;-62
2022/07/24 13:29:14;;;;;;;8.27;7.38;;;33.70;62.00;;;;;;20817619;28;20482;-62
2022/07/24 13:39:17;;;;;;;8.88;7.93;;;32.60;64.80;;;;;;20790557;28;20115;-63
2022/07/24 13:49:19;;;;;;;9.27;8.32;;;33.70;62.70;;;;;;20829806;28;20549;-63
2022/07/24 13:59:21;;;;;;;8.38;7.57;;;34.50;61.00;;;;;;20784828;28;20088;-62
2022/07/24 14:09:25;;;;;;;11.70;6.80;;;32.70;62.10;;;;;;20814210;28;20795;-62
2022/07/24 14:19:28;;;;;;;8.40;7.22;;;30.90;65.40;;;;;;20811138;28;20049;-62
2022/07/24 14:29:31;;;;;;;9.82;7.47;;;30.90;66.40;;;;;;20811046;28;20041;-61
2022/07/24 14:39:34;;;;;;;9.30;8.38;;;32.20;64.40;;;;;;20814281;28;20033;-62
2022/07/24 14:49:37;;;;;;;8.95;8.05;;;33.00;61.80;;;;;;20811422;28;20029;-62
2022/07/24 14:59:40;;;;;;;11.45;8.20;;;32.30;61.90;;;;;;20807870;28;20099;-62
2022/07/24 15:09:43;;;;;;;9.27;8.30;;;32.70;62.90;;;;;;20809047;28;20033;-57
2022/07/24 15:19:45;;;;;;;8.68;7.88;;;33.10;62.00;;;;;;20802774;28;20045;-58
2022/07/24 15:29:49;;;;;;;10.32;9.40;;;33.30;62.40;;;;;;20807710;28;20041;-63
2022/07/24 15:39:52;;;;;;;10.02;8.88;;;34.10;60.40;;;;;;20842910;28;20036;-58
2022/07/24 15:49:54;;;;;;;13.80;8.93;;;33.90;60.60;;;;;;20836523;28;20064;-63
2022/07/24 15:59:56;;;;;;;10.27;8.52;;;32.80;62.00;;;;;;20784849;28;20375;-58
2022/07/24 16:10:01;;;;;;;11.43;9.45;;;32.50;63.10;;;;;;20804029;28;20112;-58
2022/07/24 16:20:08;;;;;;;8.50;7.75;;;32.20;63.50;;;;;;20818532;28;20068;-64
2022/07/24 16:30:12;;;;;;;8.15;7.40;;;30.40;66.70;;;;;;20784637;28;20050;-62
2022/07/24 16:40:16;;;;;;;9.35;7.10;;;28.90;68.80;;;;;;20786996;28;20083;-58
2022/07/24 16:50:18;;;;;;;9.73;7.32;;;27.90;70.50;;;;;;20798919;28;20056;-58
2022/07/24 17:00:21;;;;;;;10.10;7.60;;;27.00;73.60;;;;;;20790036;28;20045;-58
2022/07/24 17:10:24;;;;;;;8.80;7.75;;;26.00;75.10;;;;;;20797745;28;20064;-58
2022/07/24 17:20:34;;;;;;;9.65;7.70;;;25.40;77.90;;;;;;20797741;28;20079;-58
2022/07/24 17:30:38;;;;;;;13.60;7.90;;;24.80;78.60;;;;;;20797173;28;20179;-58
2022/07/24 17:40:42;;;;;;;13.98;10.07;;;24.30;81.40;;;;;;20796865;28;20103;-58
2022/07/24 17:50:44;;;;;;;13.35;9.35;;;23.70;83.20;;;;;;20796376;28;20375;-58
2022/07/24 18:00:47;;;;;;;18.35;14.48;;;23.30;84.90;;;;;;20843937;28;20041;-58
2022/07/24 18:10:49;;;;;;;9.63;8.63;;;22.80;86.10;;;;;;20874475;28;20054;-58
2022/07/24 18:20:51;;;;;;;16.73;12.32;;;22.40;87.30;;;;;;20812146;28;20041;-58
2022/07/24 18:30:54;;;;;;;12.73;11.43;;;21.90;88.30;;;;;;20810058;28;20037;-58
2022/07/24 18:40:56;;;;;;;22.25;9.30;;;21.60;89.30;;;;;;20809673;28;20049;-58
2022/07/24 18:50:59;;;;;;;17.88;14.68;;;21.30;90.00;;;;;;20808278;28;20038;-58
2022/07/24 19:01:01;;;;;;;15.55;10.05;;;21.00;90.60;;;;;;20842447;28;20055;-58
2022/07/24 19:11:05;;;;;;;20.45;14.30;;;20.80;90.90;;;;;;20889156;28;20045;-58
2022/07/24 19:21:08;;;;;;;11.57;9.65;;;20.50;91.40;;;;;;20827216;28;20037;-63
2022/07/24 19:31:12;;;;;;;10.48;8.85;;;20.50;91.60;;;;;;20805969;28;20092;-65
2022/07/24 19:41:15;;;;;;;11.55;8.45;;;20.30;92.00;;;;;;20804825;28;20564;-66
2022/07/24 19:51:18;;;;;;;8.93;8.02;;;20.20;92.40;;;;;;20804101;28;20364;-63
2022/07/24 20:01:20;;;;;;;12.90;9.27;;;19.90;93.00;;;;;;20803779;28;20395;-64
2022/07/24 20:11:23;;;;;;;9.77;8.50;;;19.70;93.80;;;;;;20865635;28;20045;-64
2022/07/24 20:21:25;;;;;;;10.82;9.00;;;19.50;94.30;;;;;;20884613;28;20120;-64
2022/07/24 20:31:28;;;;;;;11.20;9.23;;;19.40;94.90;;;;;;20796844;28;20041;-66
2022/07/24 20:41:31;;;;;;;10.82;9.05;;;19.40;95.40;;;;;;20805102;28;20037;-64
2022/07/24 20:51:33;;;;;;;11.85;10.10;;;19.20;96.30;;;;;;20796841;28;20056;-68
2022/07/24 21:01:36;;;;;;;11.45;9.70;;;19.20;96.80;;;;;;20796023;28;20595;-62
2022/07/24 21:11:44;;;;;;;14.20;9.68;;;19.20;97.20;;;;;;20795300;28;20107;-62
2022/07/24 21:21:48;;;;;;;12.45;10.43;;;19.10;97.70;;;;;;20780165;28;20041;-65
2022/07/24 21:31:51;;;;;;;11.55;9.32;;;18.80;98.50;;;;;;20793168;28;20045;-66
2022/07/24 21:41:54;;;;;;;13.48;10.00;;;18.70;99.30;;;;;;20777018;28;20402;-63
2022/07/24 21:52:01;;;;;;;13.05;9.80;;;18.50;99.70;;;;;;20773382;28;20075;-65
2022/07/24 22:02:07;;;;;;;13.27;9.82;;;18.40;99.90;;;;;;20753695;28;20076;-66
2022/07/24 22:12:12;;;;;;;14.65;9.80;;;18.30;99.90;;;;;;20777969;28;20049;-60
2022/07/24 22:22:15;;;;;;;15.48;9.68;;;18.20;99.90;;;;;;20795045;28;20088;-60
2022/07/24 22:32:18;;;;;;;11.32;9.30;;;18.10;99.90;;;;;;20794982;28;20117;-58
2022/07/24 22:42:20;;;;;;;11.02;9.18;;;18.10;99.90;;;;;;20775064;28;20046;-59
2022/07/24 22:52:23;;;;;;;15.68;9.50;;;18.00;99.90;;;;;;20795400;28;20091;-58
2022/07/24 23:02:26;;;;;;;15.20;9.65;;;18.00;99.90;;;;;;20808824;28;20069;-58
2022/07/24 23:12:28;;;;;;;13.35;9.68;;;18.00;99.90;;;;;;20808023;28;20045;-58
2022/07/24 23:22:31;;;;;;;13.65;11.02;;;18.10;99.90;;;;;;20807536;28;20045;-58
2022/07/24 23:32:33;;;;;;;11.43;10.23;;;18.00;99.90;;;;;;20806730;28;20502;-58
2022/07/24 23:42:36;;;;;;;12.52;10.18;;;18.10;99.90;;;;;;20806621;28;20034;-58
2022/07/24 23:52:38;;;;;;;14.60;11.00;;;17.90;99.90;;;;;;20805009;28;20068;-57
